EIRT weather

Rathcoole Aerodrome
Rathcoole, County Cork, Ireland

Public forecast

Using degrees Celsius for public forecast. Weather courtesy of forecast.io.

Closest aviation weather report (METAR) to Rathcoole Aerodrome

Report is more than 6 hours old.

Closest report is Kerry Airport, 20.4 nm (37.8 km) WNW. Retrieved 2020/07/06 18:00 UTC (12 hours ago):

EIKY 061800Z 30005KT 250V340 9999 FEW029 BKN041 14/09 Q1026

Closest aviation forecast (TAF) to Rathcoole Aerodrome

Closest forecast is Cork Airport, 24.2 nm (44.7 km) SE. Retrieved 2020-07-07 00:11 UTC (6 hours ago):

TAF EICK 062300Z 0700/0724 28006KT 9999 FEW020 SCT040 BECMG 0701/0703 25008KT BECMG 0704/0706 21012KT PROB30 TEMPO 0704/0707 BKN012 BECMG 0707/0709 22015G25KT SCT007 BKN012 BECMG 0709/0711 7000 -DZ SCT003 BKN007 TEMPO 0711/0724 3000 -RADZ BR BKN003 BECMG 0712/0714 25016G27KT BECMG 0716/0718 25012KT PROB30 TEMPO 0718/0724 0800 FG BKN001